Time;durP1;ratioP1;P1;durP2;ratioP2;P2;SDS_P1;SDS_P2;PMS_P1;PMS_P2;Temp;Humidity;BMP_temperature;BMP_pressure;BME280_temperature;BME280_humidity;BME280_pressure;Samples;Min_cycle;Max_cycle;Signal;HPM_P1;HPM_P2
2023/06/28 00:01:36;;;;;;;;;3.50;3.50;;;;;;;;5077025;28;8892;-86
2023/06/28 00:04:04;;;;;;;;;2.50;2.50;;;;;;;;5079691;28;8876;-87
2023/06/28 00:06:32;;;;;;;;;2.75;2.75;;;;;;;;5088912;28;8885;-87
2023/06/28 00:09:11;;;;;;;;;2.75;2.75;;;;;;;;5078104;28;8853;-87
2023/06/28 00:11:52;;;;;;;;;5.50;2.00;;;;;;;;5077125;28;8851;-86
2023/06/28 00:17:07;;;;;;;;;2.00;2.00;;;;;;;;5061454;28;8871;-86
2023/06/28 00:19:47;;;;;;;;;3.00;3.00;;;;;;;;5078464;28;8843;-87
2023/06/28 00:22:32;;;;;;;;;2.50;2.50;;;;;;;;5077566;28;8968;-86
2023/06/28 00:25:22;;;;;;;;;3.50;3.50;;;;;;;;5069327;28;8877;-86
2023/06/28 00:27:49;;;;;;;;;2.50;2.50;;;;;;;;5065485;28;9000;-87
2023/06/28 00:30:18;;;;;;;;;2.25;2.25;;;;;;;;5061895;28;8881;-96
2023/06/28 00:32:47;;;;;;;;;2.50;2.50;;;;;;;;5058283;28;8920;-93
2023/06/28 00:35:25;;;;;;;;;3.00;3.00;;;;;;;;5068629;28;8874;-94
2023/06/28 00:37:52;;;;;;;;;2.75;2.00;;;;;;;;5066921;28;8964;-88
2023/06/28 00:40:20;;;;;;;;;2.75;2.75;;;;;;;;5077101;28;9001;-86
2023/06/28 00:45:31;;;;;;;;;3.00;3.00;;;;;;;;5056727;28;8834;-87
2023/06/28 00:48:03;;;;;;;;;3.00;3.00;;;;;;;;5074412;28;8857;-87
2023/06/28 00:50:37;;;;;;;;;3.00;3.00;;;;;;;;5074266;28;8835;-87
2023/06/28 00:53:05;;;;;;;;;3.00;1.75;;;;;;;;5072858;28;8884;-86
2023/06/28 00:55:33;;;;;;;;;3.00;3.00;;;;;;;;5085040;28;8847;-87
2023/06/28 00:58:02;;;;;;;;;3.00;2.00;;;;;;;;5078078;28;8890;-87
2023/06/28 01:03:30;;;;;;;;;4.25;3.00;;;;;;;;5076457;28;8954;-87
2023/06/28 01:05:58;;;;;;;;;3.00;3.00;;;;;;;;5075778;28;8863;-85
2023/06/28 01:08:26;;;;;;;;;2.25;2.25;;;;;;;;5075116;28;8885;-87
2023/06/28 01:10:54;;;;;;;;;2.00;2.00;;;;;;;;5079184;28;8895;-87
2023/06/28 01:13:22;;;;;;;;;3.50;2.25;;;;;;;;5076856;28;8903;-89
2023/06/28 01:15:50;;;;;;;;;3.25;3.25;;;;;;;;5073261;28;8880;-88
2023/06/28 01:18:19;;;;;;;;;4.75;3.00;;;;;;;;5069649;28;8954;-95
2023/06/28 01:20:49;;;;;;;;;2.50;2.50;;;;;;;;5071639;28;8887;-91
2023/06/28 01:23:18;;;;;;;;;3.75;3.75;;;;;;;;5059082;28;8985;-92
2023/06/28 01:25:46;;;;;;;;;3.00;3.00;;;;;;;;5065193;28;8857;-96
2023/06/28 01:28:13;;;;;;;;;4.25;3.75;;;;;;;;5062112;28;8819;-89
2023/06/28 01:30:41;;;;;;;;;2.50;1.00;;;;;;;;5067563;28;8777;-94
2023/06/28 01:33:10;;;;;;;;;4.00;4.00;;;;;;;;5064030;28;8885;-91
2023/06/28 01:35:37;;;;;;;;;4.25;4.00;;;;;;;;5061009;28;8953;-95
2023/06/28 01:38:04;;;;;;;;;2.00;1.25;;;;;;;;5057610;28;8888;-94
2023/06/28 01:40:36;;;;;;;;;3.00;3.00;;;;;;;;5075976;28;8965;-86
2023/06/28 01:43:18;;;;;;;;;3.00;3.00;;;;;;;;5081192;28;8845;-87
2023/06/28 01:48:27;;;;;;;;;4.25;2.75;;;;;;;;5078520;28;8950;-87
2023/06/28 01:50:58;;;;;;;;;2.50;2.50;;;;;;;;5081442;28;8854;-90
2023/06/28 01:53:25;;;;;;;;;5.00;3.00;;;;;;;;5071509;28;8949;-87
2023/06/28 01:55:59;;;;;;;;;4.50;4.00;;;;;;;;5084392;28;8859;-85
2023/06/28 01:58:41;;;;;;;;;3.00;3.00;;;;;;;;5070452;28;9001;-86
2023/06/28 02:01:08;;;;;;;;;2.50;2.50;;;;;;;;5068454;28;8814;-87
2023/06/28 02:03:36;;;;;;;;;2.00;2.00;;;;;;;;5066194;28;8889;-88
2023/06/28 02:06:28;;;;;;;;;4.00;3.00;;;;;;;;5068257;28;8865;-87
2023/06/28 02:09:03;;;;;;;;;3.25;3.25;;;;;;;;5067621;28;8896;-87
2023/06/28 02:14:17;;;;;;;;;3.00;3.00;;;;;;;;5071641;28;8858;-87
2023/06/28 02:22:35;;;;;;;;;4.00;4.00;;;;;;;;5070924;28;8851;-86
2023/06/28 02:27:59;;;;;;;;;2.75;2.75;;;;;;;;5070711;28;8896;-87
2023/06/28 02:30:26;;;;;;;;;2.00;2.00;;;;;;;;5059968;28;8804;-88
2023/06/28 02:33:00;;;;;;;;;3.25;3.25;;;;;;;;5083734;28;8849;-85
2023/06/28 02:38:16;;;;;;;;;2.75;2.75;;;;;;;;5062352;28;8880;-96
2023/06/28 02:40:43;;;;;;;;;2.75;2.75;;;;;;;;5054218;28;8951;-92
2023/06/28 02:43:12;;;;;;;;;3.00;3.00;;;;;;;;5055153;28;8873;-91
2023/06/28 02:45:39;;;;;;;;;3.00;3.00;;;;;;;;5051562;28;8879;-90
2023/06/28 02:48:07;;;;;;;;;3.00;3.00;;;;;;;;5054889;28;8865;-95
2023/06/28 02:50:34;;;;;;;;;3.50;2.75;;;;;;;;5049321;28;8852;-91
2023/06/28 02:53:06;;;;;;;;;4.50;3.25;;;;;;;;5051859;28;8846;-90
2023/06/28 02:55:34;;;;;;;;;3.00;3.00;;;;;;;;5061147;28;8873;-93
2023/06/28 02:58:04;;;;;;;;;3.25;3.25;;;;;;;;5058508;28;8837;-93
2023/06/28 03:00:37;;;;;;;;;4.00;3.75;;;;;;;;5059991;28;8788;-89
2023/06/28 03:03:09;;;;;;;;;3.75;3.00;;;;;;;;5071143;28;8844;-92
2023/06/28 03:05:40;;;;;;;;;5.50;5.25;;;;;;;;5065494;28;8845;-95
2023/06/28 03:08:07;;;;;;;;;6.00;4.00;;;;;;;;5058217;28;8857;-87
2023/06/28 03:10:35;;;;;;;;;3.00;3.00;;;;;;;;5069381;28;8977;-88
2023/06/28 03:13:02;;;;;;;;;3.00;2.75;;;;;;;;5067446;28;8846;-96
2023/06/28 03:15:30;;;;;;;;;3.75;3.75;;;;;;;;5072118;28;8909;-86
2023/06/28 03:18:04;;;;;;;;;2.75;2.75;;;;;;;;5074162;28;8885;-90
2023/06/28 03:20:32;;;;;;;;;2.25;2.00;;;;;;;;5065487;28;9601;-87
2023/06/28 03:22:59;;;;;;;;;2.00;2.00;;;;;;;;5066329;28;8915;-88
2023/06/28 03:25:27;;;;;;;;;3.00;3.00;;;;;;;;5058879;28;8923;-94
2023/06/28 03:27:54;;;;;;;;;3.50;3.50;;;;;;;;5065266;28;8851;-95
2023/06/28 03:30:21;;;;;;;;;3.50;3.50;;;;;;;;5054315;28;8861;-90
2023/06/28 03:32:50;;;;;;;;;4.00;4.00;;;;;;;;5061147;28;8868;-88
2023/06/28 03:35:20;;;;;;;;;3.75;3.75;;;;;;;;5071848;28;8853;-89
2023/06/28 03:37:51;;;;;;;;;3.00;3.00;;;;;;;;5050749;28;8987;-87
2023/06/28 03:40:18;;;;;;;;;2.50;2.50;;;;;;;;5055210;28;8873;-86
2023/06/28 03:42:47;;;;;;;;;4.00;4.00;;;;;;;;5053946;28;8849;-81
2023/06/28 03:45:15;;;;;;;;;3.75;2.50;;;;;;;;5048412;28;8857;-80
2023/06/28 03:47:42;;;;;;;;;4.25;4.25;;;;;;;;5052406;28;8846;-79
2023/06/28 03:50:10;;;;;;;;;4.00;4.00;;;;;;;;5053669;28;8853;-78
2023/06/28 03:52:38;;;;;;;;;2.25;2.25;;;;;;;;5055369;28;8857;-78
2023/06/28 03:55:11;;;;;;;;;3.00;3.00;;;;;;;;5056132;28;8854;-85
2023/06/28 03:57:39;;;;;;;;;2.00;2.00;;;;;;;;5059006;28;8916;-81
2023/06/28 04:00:08;;;;;;;;;2.00;2.00;;;;;;;;5057603;28;8845;-80
2023/06/28 04:02:36;;;;;;;;;2.25;2.25;;;;;;;;5058004;28;8831;-86
2023/06/28 04:05:05;;;;;;;;;3.00;3.00;;;;;;;;5054883;28;8965;-86
2023/06/28 04:07:34;;;;;;;;;3.75;3.25;;;;;;;;5058347;28;8843;-87
2023/06/28 04:10:03;;;;;;;;;3.00;3.00;;;;;;;;5055834;28;8865;-83
2023/06/28 04:12:30;;;;;;;;;3.25;3.25;;;;;;;;5053859;28;8853;-81
2023/06/28 04:14:58;;;;;;;;;3.75;3.00;;;;;;;;5047720;28;8865;-85
2023/06/28 04:17:25;;;;;;;;;2.00;2.00;;;;;;;;5060530;28;8874;-79
2023/06/28 04:19:52;;;;;;;;;4.00;2.25;;;;;;;;5049341;28;8856;-78
2023/06/28 04:22:19;;;;;;;;;3.00;2.00;;;;;;;;5050320;28;8887;-89
2023/06/28 04:24:47;;;;;;;;;4.00;4.00;;;;;;;;5052436;28;8960;-83
2023/06/28 04:27:15;;;;;;;;;2.00;2.00;;;;;;;;5055873;28;8867;-84
2023/06/28 04:29:42;;;;;;;;;5.00;3.00;;;;;;;;5058090;28;8919;-81
2023/06/28 04:32:23;;;;;;;;;3.00;3.00;;;;;;;;5057877;28;8900;-86
2023/06/28 04:34:53;;;;;;;;;2.75;2.75;;;;;;;;5046040;28;8861;-90
2023/06/28 04:37:20;;;;;;;;;1.25;1.25;;;;;;;;5064992;28;8817;-88
2023/06/28 04:39:47;;;;;;;;;3.50;3.00;;;;;;;;5054129;28;9074;-88
2023/06/28 04:42:16;;;;;;;;;5.00;5.00;;;;;;;;5056538;28;8892;-89
2023/06/28 04:44:46;;;;;;;;;3.00;3.00;;;;;;;;5052807;28;8865;-84
2023/06/28 04:47:15;;;;;;;;;5.25;5.25;;;;;;;;5052064;28;8837;-89
2023/06/28 04:49:43;;;;;;;;;4.00;4.00;;;;;;;;5052220;28;8906;-92
2023/06/28 04:52:12;;;;;;;;;4.00;3.75;;;;;;;;5057546;28;8865;-89
2023/06/28 04:54:40;;;;;;;;;3.75;3.75;;;;;;;;5061925;28;8854;-87
2023/06/28 04:57:07;;;;;;;;;5.00;4.75;;;;;;;;5054072;28;8880;-89
2023/06/28 04:59:37;;;;;;;;;3.75;3.75;;;;;;;;5052718;28;8875;-91
2023/06/28 05:02:05;;;;;;;;;5.50;5.50;;;;;;;;5054005;28;8818;-87
2023/06/28 05:04:33;;;;;;;;;3.00;3.00;;;;;;;;5056055;28;8865;-88
2023/06/28 05:07:05;;;;;;;;;8.25;5.75;;;;;;;;5054528;28;8888;-88
2023/06/28 05:09:35;;;;;;;;;4.00;4.00;;;;;;;;5053130;28;8864;-81
2023/06/28 05:12:04;;;;;;;;;4.00;4.00;;;;;;;;5055721;28;8907;-81
2023/06/28 05:14:36;;;;;;;;;6.75;4.75;;;;;;;;5064281;28;8869;-84
2023/06/28 05:17:03;;;;;;;;;6.00;6.00;;;;;;;;5052369;28;8877;-81
2023/06/28 05:19:30;;;;;;;;;7.50;6.00;;;;;;;;5053944;28;8855;-80
2023/06/28 05:21:58;;;;;;;;;5.25;5.25;;;;;;;;5062582;28;8854;-80
2023/06/28 05:24:25;;;;;;;;;5.00;5.00;;;;;;;;5049343;28;8993;-82
2023/06/28 05:26:53;;;;;;;;;5.25;5.25;;;;;;;;5053838;28;8905;-84
2023/06/28 05:29:20;;;;;;;;;5.00;5.00;;;;;;;;5059327;28;8849;-85
2023/06/28 05:31:48;;;;;;;;;6.75;6.75;;;;;;;;5052479;28;8955;-83
2023/06/28 05:34:16;;;;;;;;;11.50;7.75;;;;;;;;5064897;28;9794;-85
2023/06/28 05:36:43;;;;;;;;;5.25;5.25;;;;;;;;5069218;28;9625;-83
2023/06/28 05:39:10;;;;;;;;;4.25;4.25;;;;;;;;5053833;28;8893;-83
2023/06/28 05:41:38;;;;;;;;;6.25;6.25;;;;;;;;5067477;28;8867;-84
2023/06/28 05:44:05;;;;;;;;;7.50;6.00;;;;;;;;5069062;28;8882;-84
2023/06/28 05:46:37;;;;;;;;;5.75;5.75;;;;;;;;5071705;28;8965;-84
2023/06/28 05:49:08;;;;;;;;;3.75;3.75;;;;;;;;5068733;28;8907;-85
2023/06/28 05:51:36;;;;;;;;;6.75;6.00;;;;;;;;5069227;28;8869;-87
2023/06/28 05:54:04;;;;;;;;;5.00;5.00;;;;;;;;5064416;28;8863;-82
2023/06/28 05:56:31;;;;;;;;;6.25;4.75;;;;;;;;5069276;28;8981;-81
2023/06/28 05:58:59;;;;;;;;;4.50;4.50;;;;;;;;5067014;28;8870;-85
2023/06/28 06:01:26;;;;;;;;;5.25;5.25;;;;;;;;5066759;28;8927;-84
2023/06/28 06:03:53;;;;;;;;;6.25;6.25;;;;;;;;5056205;28;8903;-85
2023/06/28 06:06:22;;;;;;;;;5.00;5.00;;;;;;;;5060523;28;8874;-84
2023/06/28 06:08:49;;;;;;;;;10.00;8.25;;;;;;;;5066296;28;8860;-84
2023/06/28 06:11:16;;;;;;;;;4.75;4.75;;;;;;;;5066626;28;8947;-93
2023/06/28 06:13:44;;;;;;;;;5.00;5.00;;;;;;;;5051516;28;8878;-85
2023/06/28 06:16:11;;;;;;;;;6.25;6.25;;;;;;;;5057182;28;8873;-86
2023/06/28 06:18:40;;;;;;;;;4.00;4.00;;;;;;;;5057239;28;8889;-86
2023/06/28 06:21:07;;;;;;;;;6.75;4.75;;;;;;;;5061677;28;9200;-85
2023/06/28 06:23:36;;;;;;;;;6.25;4.75;;;;;;;;5055928;28;8958;-86
2023/06/28 06:26:03;;;;;;;;;8.00;6.00;;;;;;;;5069038;28;8898;-86
2023/06/28 06:28:31;;;;;;;;;4.00;4.00;;;;;;;;5050664;28;8954;-85
2023/06/28 06:30:58;;;;;;;;;4.25;4.25;;;;;;;;5049733;28;8917;-85
2023/06/28 06:33:26;;;;;;;;;4.00;4.00;;;;;;;;5056941;28;8843;-83
2023/06/28 06:35:53;;;;;;;;;4.50;3.25;;;;;;;;5052782;28;8871;-86
2023/06/28 06:38:20;;;;;;;;;3.25;3.25;;;;;;;;5054442;28;8985;-87
2023/06/28 06:40:49;;;;;;;;;5.50;4.00;;;;;;;;5054012;28;9008;-86
2023/06/28 06:43:16;;;;;;;;;5.25;5.00;;;;;;;;5060141;28;8850;-88
2023/06/28 06:45:44;;;;;;;;;4.50;4.00;;;;;;;;5060234;28;8830;-88
2023/06/28 06:48:11;;;;;;;;;5.75;5.75;;;;;;;;5054078;28;8849;-86
2023/06/28 06:50:38;;;;;;;;;5.25;5.25;;;;;;;;5056738;28;8857;-83
2023/06/28 06:53:06;;;;;;;;;9.00;5.00;;;;;;;;5066508;28;8893;-78
2023/06/28 06:55:34;;;;;;;;;3.75;3.75;;;;;;;;5054466;28;8894;-84
2023/06/28 06:58:03;;;;;;;;;7.75;7.75;;;;;;;;5050878;28;8869;-82
2023/06/28 07:00:31;;;;;;;;;4.50;4.50;;;;;;;;5062471;28;8819;-82
2023/06/28 07:02:58;;;;;;;;;4.75;4.75;;;;;;;;5056105;28;8923;-81
2023/06/28 07:05:25;;;;;;;;;4.25;4.00;;;;;;;;5048275;28;8857;-80
2023/06/28 07:07:54;;;;;;;;;5.00;5.00;;;;;;;;5048190;28;8968;-81
2023/06/28 07:10:21;;;;;;;;;5.00;5.00;;;;;;;;5048526;28;8869;-82
2023/06/28 07:12:48;;;;;;;;;3.25;3.25;;;;;;;;5047736;28;8865;-82
2023/06/28 07:15:17;;;;;;;;;5.00;5.00;;;;;;;;5048115;28;8968;-83
2023/06/28 07:17:44;;;;;;;;;6.00;5.00;;;;;;;;5048477;28;8889;-81
2023/06/28 07:20:12;;;;;;;;;5.00;5.00;;;;;;;;5051048;28;8865;-81
2023/06/28 07:22:39;;;;;;;;;5.25;3.75;;;;;;;;5051973;28;8857;-81
2023/06/28 07:25:07;;;;;;;;;6.25;4.75;;;;;;;;5060360;28;8870;-81
2023/06/28 07:27:34;;;;;;;;;6.00;6.00;;;;;;;;5066672;28;8900;-81
2023/06/28 07:30:02;;;;;;;;;6.25;4.50;;;;;;;;5050366;28;8875;-82
2023/06/28 07:32:32;;;;;;;;;5.00;5.00;;;;;;;;5050353;28;8933;-84
2023/06/28 07:35:00;;;;;;;;;6.25;4.50;;;;;;;;5059251;28;8873;-87
2023/06/28 07:37:27;;;;;;;;;5.25;5.25;;;;;;;;5054566;28;8892;-82
2023/06/28 07:39:58;;;;;;;;;3.00;3.00;;;;;;;;5057875;28;8885;-85
2023/06/28 07:42:26;;;;;;;;;4.00;3.00;;;;;;;;5051377;28;8869;-80
2023/06/28 07:44:54;;;;;;;;;5.00;5.00;;;;;;;;5049115;28;8865;-78
2023/06/28 07:47:21;;;;;;;;;6.00;4.50;;;;;;;;5050778;28;8861;-79
2023/06/28 07:49:50;;;;;;;;;5.80;4.00;;;;;;;;5049147;28;8845;-78
2023/06/28 07:52:17;;;;;;;;;3.00;3.00;;;;;;;;5049282;28;8962;-79
2023/06/28 07:54:44;;;;;;;;;4.20;4.20;;;;;;;;5049618;28;9019;-79
2023/06/28 07:57:11;;;;;;;;;3.20;3.00;;;;;;;;5053428;28;8861;-79
2023/06/28 07:59:39;;;;;;;;;6.60;4.00;;;;;;;;5054347;28;8849;-79
2023/06/28 08:02:06;;;;;;;;;5.40;4.40;;;;;;;;5053119;28;8826;-79
2023/06/28 08:04:33;;;;;;;;;4.00;4.00;;;;;;;;5053745;28;8982;-79
2023/06/28 08:07:02;;;;;;;;;5.40;4.00;;;;;;;;5053204;28;9644;-79
2023/06/28 08:09:29;;;;;;;;;4.40;4.40;;;;;;;;5063556;28;9681;-79
2023/06/28 08:11:56;;;;;;;;;4.40;4.40;;;;;;;;5052397;28;8849;-79
2023/06/28 08:14:24;;;;;;;;;3.60;3.60;;;;;;;;5053663;28;8853;-79
2023/06/28 08:16:51;;;;;;;;;5.00;5.00;;;;;;;;5059950;28;8875;-79
2023/06/28 08:19:19;;;;;;;;;4.40;4.40;;;;;;;;5061283;28;8853;-80
2023/06/28 08:21:46;;;;;;;;;6.80;5.20;;;;;;;;5059295;28;8859;-80
2023/06/28 08:24:14;;;;;;;;;4.80;4.80;;;;;;;;5061746;28;8857;-80
2023/06/28 08:26:42;;;;;;;;;7.80;5.40;;;;;;;;5061248;28;8981;-79
2023/06/28 08:29:09;;;;;;;;;6.80;5.20;;;;;;;;5062182;28;8859;-78
2023/06/28 08:31:36;;;;;;;;;6.80;4.80;;;;;;;;5060978;28;8822;-79
2023/06/28 08:34:03;;;;;;;;;4.60;4.60;;;;;;;;5054587;28;8881;-82
2023/06/28 08:36:33;;;;;;;;;6.40;5.00;;;;;;;;5054336;28;8853;-80
2023/06/28 08:39:01;;;;;;;;;5.20;4.60;;;;;;;;5060287;28;8862;-80
2023/06/28 08:41:29;;;;;;;;;5.40;5.40;;;;;;;;5054061;28;8880;-77
2023/06/28 08:43:57;;;;;;;;;5.40;5.40;;;;;;;;5060148;28;8874;-79
2023/06/28 08:46:25;;;;;;;;;5.60;5.60;;;;;;;;5055478;28;9599;-80
2023/06/28 08:48:54;;;;;;;;;4.60;4.60;;;;;;;;5053630;28;8960;-78
2023/06/28 08:51:22;;;;;;;;;6.60;5.80;;;;;;;;5055951;28;8899;-78
2023/06/28 08:53:50;;;;;;;;;7.00;5.00;;;;;;;;5055410;28;8880;-79
2023/06/28 08:56:17;;;;;;;;;5.00;5.00;;;;;;;;5066976;28;8873;-79
2023/06/28 08:58:48;;;;;;;;;4.80;4.60;;;;;;;;5065256;28;8866;-81
2023/06/28 09:01:15;;;;;;;;;2.80;0.80;;;;;;;;5053261;28;8830;-77
2023/06/28 09:03:43;;;;;;;;;6.80;6.00;;;;;;;;5053646;28;8998;-79
2023/06/28 09:06:11;;;;;;;;;7.60;5.00;;;;;;;;5052412;28;8898;-79
2023/06/28 09:08:39;;;;;;;;;6.80;6.40;;;;;;;;5050864;28;8976;-78
2023/06/28 09:11:06;;;;;;;;;3.40;3.40;;;;;;;;5053488;28;9031;-78
2023/06/28 09:13:33;;;;;;;;;6.20;6.20;;;;;;;;5050323;28;8976;-77
2023/06/28 09:16:03;;;;;;;;;5.20;5.20;;;;;;;;5050610;28;8888;-78
2023/06/28 09:18:30;;;;;;;;;5.40;4.80;;;;;;;;5049728;28;8861;-79
2023/06/28 09:20:58;;;;;;;;;8.00;6.00;;;;;;;;5049240;28;8853;-79
2023/06/28 09:23:26;;;;;;;;;6.40;6.40;;;;;;;;5051287;28;8857;-77
2023/06/28 09:25:54;;;;;;;;;7.20;5.80;;;;;;;;5051520;28;9624;-79
2023/06/28 09:28:23;;;;;;;;;7.00;7.00;;;;;;;;5051948;28;8879;-79
2023/06/28 09:30:54;;;;;;;;;7.60;6.00;;;;;;;;5050761;28;8794;-79
2023/06/28 09:33:23;;;;;;;;;6.60;6.60;;;;;;;;5050068;28;8853;-79
2023/06/28 09:35:54;;;;;;;;;9.00;5.80;;;;;;;;5051172;28;8983;-79
2023/06/28 09:38:22;;;;;;;;;7.60;7.60;;;;;;;;5050046;28;8869;-79
2023/06/28 09:40:55;;;;;;;;;9.60;9.00;;;;;;;;5051370;28;8873;-79
2023/06/28 09:43:24;;;;;;;;;8.80;8.80;;;;;;;;5049073;28;8880;-79
2023/06/28 09:45:54;;;;;;;;;12.40;10.60;;;;;;;;5049492;28;8860;-79
2023/06/28 09:48:25;;;;;;;;;7.20;6.60;;;;;;;;5051709;28;8853;-79
2023/06/28 09:50:52;;;;;;;;;9.20;9.20;;;;;;;;5050838;28;8996;-81
2023/06/28 09:53:21;;;;;;;;;9.80;9.80;;;;;;;;5058913;28;8965;-78
2023/06/28 09:55:50;;;;;;;;;11.80;11.80;;;;;;;;5072641;28;8874;-79
2023/06/28 09:58:20;;;;;;;;;12.80;12.80;;;;;;;;5040069;28;9036;-77
2023/06/28 10:00:49;;;;;;;;;7.40;7.40;;;;;;;;5050194;28;8844;-77
2023/06/28 10:03:17;;;;;;;;;7.20;7.20;;;;;;;;5068878;28;8902;-78
2023/06/28 10:05:47;;;;;;;;;12.80;12.80;;;;;;;;5058191;28;8894;-78
2023/06/28 10:08:15;;;;;;;;;15.80;15.00;;;;;;;;5059325;28;8948;-76
2023/06/28 10:10:44;;;;;;;;;14.20;11.00;;;;;;;;5069006;28;8855;-77
2023/06/28 10:13:13;;;;;;;;;14.40;14.40;;;;;;;;5055030;28;8971;-78
2023/06/28 10:15:45;;;;;;;;;13.40;13.40;;;;;;;;5056868;28;8895;-77
2023/06/28 10:18:14;;;;;;;;;15.40;15.40;;;;;;;;5049954;28;8850;-79
2023/06/28 10:20:42;;;;;;;;;14.00;12.80;;;;;;;;5053917;28;9620;-82
2023/06/28 10:23:12;;;;;;;;;11.40;11.40;;;;;;;;5038238;28;8834;-87
2023/06/28 10:25:40;;;;;;;;;13.40;13.40;;;;;;;;5049948;28;8877;-80
2023/06/28 10:28:08;;;;;;;;;12.00;12.00;;;;;;;;5038148;28;8896;-85
2023/06/28 10:30:36;;;;;;;;;14.80;13.00;;;;;;;;5049459;28;8899;-86
2023/06/28 10:33:04;;;;;;;;;17.40;14.60;;;;;;;;5056056;28;9709;-81
2023/06/28 10:35:35;;;;;;;;;13.00;13.00;;;;;;;;5057000;28;8851;-87
2023/06/28 10:38:05;;;;;;;;;12.20;10.40;;;;;;;;5052848;28;8850;-93
2023/06/28 10:40:35;;;;;;;;;11.40;10.40;;;;;;;;5050437;28;8860;-87
2023/06/28 10:43:04;;;;;;;;;10.40;10.40;;;;;;;;5054808;28;8915;-85
2023/06/28 10:45:35;;;;;;;;;16.20;13.00;;;;;;;;5050225;28;8853;-85
2023/06/28 10:48:06;;;;;;;;;15.40;15.40;;;;;;;;5052179;28;8961;-81
2023/06/28 10:50:41;;;;;;;;;14.80;14.80;;;;;;;;5054674;28;8846;-80
2023/06/28 10:53:20;;;;;;;;;16.60;15.00;;;;;;;;5051951;28;8884;-79
2023/06/28 10:56:16;;;;;;;;;12.60;12.60;;;;;;;;5052121;28;8877;-84
2023/06/28 10:58:47;;;;;;;;;20.80;16.80;;;;;;;;5053630;28;8868;-86
2023/06/28 11:01:35;;;;;;;;;15.80;15.80;;;;;;;;5051946;28;8809;-84
2023/06/28 11:04:18;;;;;;;;;12.80;12.80;;;;;;;;5048180;28;8858;-85
2023/06/28 11:06:46;;;;;;;;;12.60;12.60;;;;;;;;5059936;28;9699;-94
2023/06/28 11:09:15;;;;;;;;;15.60;15.60;;;;;;;;5055881;28;8861;-86
2023/06/28 11:11:55;;;;;;;;;18.80;17.00;;;;;;;;5045272;28;9648;-88
2023/06/28 11:14:26;;;;;;;;;13.60;13.60;;;;;;;;5062817;28;8846;-96
2023/06/28 11:17:02;;;;;;;;;19.60;17.40;;;;;;;;5052278;28;8872;-90
2023/06/28 11:19:29;;;;;;;;;18.40;18.40;;;;;;;;5051786;28;8851;-87
2023/06/28 11:21:57;;;;;;;;;15.40;15.40;;;;;;;;5062402;28;8996;-92
2023/06/28 11:24:43;;;;;;;;;17.40;14.60;;;;;;;;5062204;28;8860;-88
2023/06/28 11:27:13;;;;;;;;;18.80;16.40;;;;;;;;5064999;28;8872;-81
2023/06/28 11:29:54;;;;;;;;;20.40;20.40;;;;;;;;5064900;28;8941;-94
2023/06/28 11:32:25;;;;;;;;;20.00;18.00;;;;;;;;5072241;28;8818;-83
2023/06/28 11:34:53;;;;;;;;;17.40;17.40;;;;;;;;5077090;28;8859;-91
2023/06/28 11:37:22;;;;;;;;;21.80;20.00;;;;;;;;5058473;28;8878;-82
2023/06/28 11:39:50;;;;;;;;;13.00;13.00;;;;;;;;5056893;28;8871;-82
2023/06/28 11:42:19;;;;;;;;;20.00;19.60;;;;;;;;5066802;28;8853;-85
2023/06/28 11:44:47;;;;;;;;;21.60;15.00;;;;;;;;5057797;28;8869;-85
2023/06/28 11:47:16;;;;;;;;;22.40;22.00;;;;;;;;5053866;28;8861;-84
2023/06/28 11:49:44;;;;;;;;;19.20;19.20;;;;;;;;5051364;28;8867;-84
2023/06/28 11:52:11;;;;;;;;;20.80;20.80;;;;;;;;5051519;28;8861;-85
2023/06/28 11:54:39;;;;;;;;;26.00;24.00;;;;;;;;5050969;28;8852;-80
2023/06/28 11:57:07;;;;;;;;;24.40;22.00;;;;;;;;5052452;28;8853;-87
2023/06/28 11:59:36;;;;;;;;;19.40;18.00;;;;;;;;5060897;28;8881;-90
2023/06/28 12:02:07;;;;;;;;;23.80;22.00;;;;;;;;5051777;28;8801;-87
2023/06/28 12:04:36;;;;;;;;;22.80;22.80;;;;;;;;5052880;28;8899;-80
2023/06/28 12:07:04;;;;;;;;;24.00;21.80;;;;;;;;5056239;28;8861;-86
2023/06/28 12:09:32;;;;;;;;;24.60;22.00;;;;;;;;5055319;28;8931;-82
2023/06/28 12:12:05;;;;;;;;;26.20;24.40;;;;;;;;5054068;28;8983;-86
2023/06/28 12:14:40;;;;;;;;;26.60;24.00;;;;;;;;5051578;28;8888;-81
2023/06/28 12:17:08;;;;;;;;;22.40;21.60;;;;;;;;5051746;28;8999;-82
2023/06/28 12:19:35;;;;;;;;;25.20;23.20;;;;;;;;5052546;28;8968;-81
2023/06/28 12:22:03;;;;;;;;;27.20;26.20;;;;;;;;5051351;28;8980;-82
2023/06/28 12:24:35;;;;;;;;;27.40;24.00;;;;;;;;5050946;28;8865;-82
2023/06/28 12:27:05;;;;;;;;;25.40;23.20;;;;;;;;5051158;28;8869;-84
2023/06/28 12:29:35;;;;;;;;;26.00;24.40;;;;;;;;5038978;28;8865;-83
2023/06/28 12:32:06;;;;;;;;;29.80;27.00;;;;;;;;5050034;28;8813;-81
2023/06/28 12:34:36;;;;;;;;;22.60;22.60;;;;;;;;5050952;28;9004;-82
2023/06/28 12:37:06;;;;;;;;;24.20;22.00;;;;;;;;5051766;28;8946;-82
2023/06/28 12:39:36;;;;;;;;;30.40;28.60;;;;;;;;5040438;28;8845;-80
2023/06/28 12:42:05;;;;;;;;;25.00;25.00;;;;;;;;5051178;28;9042;-78
2023/06/28 12:44:46;;;;;;;;;28.00;28.00;;;;;;;;5059117;28;8981;-77
2023/06/28 12:47:15;;;;;;;;;26.60;25.00;;;;;;;;5056171;28;8852;-81
2023/06/28 12:49:44;;;;;;;;;30.40;29.60;;;;;;;;5052047;28;8952;-78
2023/06/28 12:52:11;;;;;;;;;33.60;31.00;;;;;;;;5053052;28;8857;-78
2023/06/28 12:54:38;;;;;;;;;39.60;34.00;;;;;;;;5063151;28;8859;-84
2023/06/28 12:57:07;;;;;;;;;33.60;31.40;;;;;;;;5052627;28;8975;-78
2023/06/28 12:59:36;;;;;;;;;31.40;30.20;;;;;;;;5053631;28;8865;-80
2023/06/28 13:02:04;;;;;;;;;34.00;32.00;;;;;;;;5065003;28;8822;-81
2023/06/28 13:04:35;;;;;;;;;30.80;29.00;;;;;;;;5053004;28;8983;-81
2023/06/28 13:07:07;;;;;;;;;27.00;26.80;;;;;;;;5052311;28;8857;-82
2023/06/28 13:09:34;;;;;;;;;28.60;27.80;;;;;;;;5053422;28;8853;-82
2023/06/28 13:12:02;;;;;;;;;30.60;29.20;;;;;;;;5052042;28;8960;-82
2023/06/28 13:14:29;;;;;;;;;34.20;29.20;;;;;;;;5050931;28;8899;-84
2023/06/28 13:16:58;;;;;;;;;36.60;30.40;;;;;;;;5055363;28;9088;-81
2023/06/28 13:19:31;;;;;;;;;30.20;28.40;;;;;;;;5067914;28;8877;-81
2023/06/28 13:21:59;;;;;;;;;33.20;29.20;;;;;;;;5059621;28;8858;-86
2023/06/28 13:24:26;;;;;;;;;35.60;31.00;;;;;;;;5065228;28;8877;-82
2023/06/28 13:26:56;;;;;;;;;28.60;27.60;;;;;;;;5071746;28;8952;-81
2023/06/28 13:29:23;;;;;;;;;35.60;31.20;;;;;;;;5057649;28;8830;-79
2023/06/28 13:31:51;;;;;;;;;33.00;29.20;;;;;;;;5062752;28;8831;-83
2023/06/28 13:34:18;;;;;;;;;36.40;33.00;;;;;;;;5054375;28;8846;-78
2023/06/28 13:36:46;;;;;;;;;29.60;26.40;;;;;;;;5051815;28;8857;-80
2023/06/28 13:39:16;;;;;;;;;29.40;27.80;;;;;;;;5059259;28;8986;-84
2023/06/28 13:41:43;;;;;;;;;26.40;24.20;;;;;;;;5069342;28;8842;-85
2023/06/28 13:44:11;;;;;;;;;22.20;22.20;;;;;;;;5053878;28;9554;-85
2023/06/28 13:46:40;;;;;;;;;27.00;25.40;;;;;;;;5052616;28;8862;-84
2023/06/28 13:49:08;;;;;;;;;30.00;25.80;;;;;;;;5053942;28;8887;-86
2023/06/28 13:51:35;;;;;;;;;26.40;25.40;;;;;;;;5054390;28;8892;-87
2023/06/28 13:54:03;;;;;;;;;27.80;26.40;;;;;;;;5052799;28;8861;-83
2023/06/28 13:56:31;;;;;;;;;23.40;22.00;;;;;;;;5052009;28;9007;-79
2023/06/28 13:58:58;;;;;;;;;19.80;18.40;;;;;;;;5059037;28;8976;-82
2023/06/28 14:01:26;;;;;;;;;22.40;22.00;;;;;;;;5049130;28;8809;-84
2023/06/28 14:03:53;;;;;;;;;27.60;25.00;;;;;;;;5041010;28;8837;-80
2023/06/28 14:06:20;;;;;;;;;23.80;23.80;;;;;;;;5054360;28;8969;-81
2023/06/28 14:08:47;;;;;;;;;24.60;24.60;;;;;;;;5052847;28;8875;-83
2023/06/28 14:11:15;;;;;;;;;30.00;25.00;;;;;;;;5053388;28;8940;-84
2023/06/28 14:13:44;;;;;;;;;19.80;19.40;;;;;;;;5059198;28;8843;-87
2023/06/28 14:16:11;;;;;;;;;29.80;26.00;;;;;;;;5054636;28;8862;-83
2023/06/28 14:18:38;;;;;;;;;22.60;22.60;;;;;;;;5049903;28;8842;-80
2023/06/28 14:21:05;;;;;;;;;24.40;22.80;;;;;;;;5049690;28;8857;-82
2023/06/28 14:23:32;;;;;;;;;24.00;23.20;;;;;;;;5058238;28;8850;-85
2023/06/28 14:26:00;;;;;;;;;25.40;22.40;;;;;;;;5054353;28;8976;-89
2023/06/28 14:28:29;;;;;;;;;25.60;25.60;;;;;;;;5048862;28;8865;-86
2023/06/28 14:30:59;;;;;;;;;26.00;24.80;;;;;;;;5051154;28;8950;-85
2023/06/28 14:33:27;;;;;;;;;29.40;29.00;;;;;;;;5058220;28;8853;-86
2023/06/28 14:35:54;;;;;;;;;29.20;27.40;;;;;;;;5055543;28;8871;-91
2023/06/28 14:38:21;;;;;;;;;33.20;27.80;;;;;;;;5059244;28;8985;-89
2023/06/28 14:40:48;;;;;;;;;26.60;26.60;;;;;;;;5049487;28;8849;-88
2023/06/28 14:43:16;;;;;;;;;29.60;26.60;;;;;;;;5058702;28;8855;-93
2023/06/28 14:45:46;;;;;;;;;26.60;25.40;;;;;;;;5070935;28;8858;-93
2023/06/28 14:48:14;;;;;;;;;25.80;25.80;;;;;;;;5062162;28;9755;-88
2023/06/28 14:50:43;;;;;;;;;27.80;26.20;;;;;;;;5060567;28;8915;-88
2023/06/28 14:53:11;;;;;;;;;28.60;27.40;;;;;;;;5068220;28;8901;-81
2023/06/28 14:55:38;;;;;;;;;26.20;23.40;;;;;;;;5053771;28;8865;-90
2023/06/28 14:58:05;;;;;;;;;28.20;24.40;;;;;;;;5056788;28;8918;-91
2023/06/28 15:00:36;;;;;;;;;27.60;27.40;;;;;;;;5064056;28;8774;-90
2023/06/28 15:03:04;;;;;;;;;27.60;27.60;;;;;;;;5055529;28;8905;-88
2023/06/28 15:05:32;;;;;;;;;29.20;26.60;;;;;;;;5048242;28;9231;-90
2023/06/28 15:08:00;;;;;;;;;26.80;26.60;;;;;;;;5048957;28;9000;-89
2023/06/28 15:10:27;;;;;;;;;29.40;27.80;;;;;;;;5047968;28;8837;-85
2023/06/28 15:12:54;;;;;;;;;26.40;26.40;;;;;;;;5050652;28;8849;-85
2023/06/28 15:15:22;;;;;;;;;25.20;24.60;;;;;;;;5060799;28;8885;-89
2023/06/28 15:17:49;;;;;;;;;31.00;29.60;;;;;;;;5049349;28;8858;-87
2023/06/28 15:20:17;;;;;;;;;28.80;26.40;;;;;;;;5048437;28;8985;-84
2023/06/28 15:22:45;;;;;;;;;32.20;28.80;;;;;;;;5048897;28;8853;-90